createdAt,value
2019-02-18T00:03:44.292Z,32.30
2019-02-18T00:06:12.808Z,33.50
2019-02-18T00:08:41.280Z,33.13
2019-02-18T00:11:09.762Z,33.13
2019-02-18T00:13:38.497Z,34.70
2019-02-18T00:16:06.986Z,31.30
2019-02-18T00:18:35.469Z,34.17
2019-02-18T00:21:03.961Z,32.60
2019-02-18T00:23:32.454Z,31.87
2019-02-18T00:26:00.952Z,27.53
2019-02-18T00:28:29.450Z,31.70
2019-02-18T00:30:57.938Z,30.57
2019-02-18T00:33:26.434Z,31.47
2019-02-18T00:35:54.932Z,32.90
2019-02-18T00:38:23.508Z,33.80
2019-02-18T00:40:51.988Z,36.90
2019-02-18T00:43:20.490Z,33.77
2019-02-18T00:45:49.010Z,45.90
2019-02-18T00:48:17.497Z,39.10
2019-02-18T00:50:45.956Z,34.87
2019-02-18T00:53:14.442Z,37.73
2019-02-18T00:55:42.873Z,37.67
2019-02-18T00:58:11.365Z,34.47
2019-02-18T01:00:39.988Z,36.00
2019-02-18T01:03:08.478Z,37.90
2019-02-18T01:05:36.979Z,38.10
2019-02-18T01:08:05.464Z,35.43
2019-02-18T01:10:33.951Z,43.57
2019-02-18T01:13:02.384Z,44.57
2019-02-18T01:15:30.880Z,45.97
2019-02-18T01:17:59.377Z,42.50
2019-02-18T01:20:27.855Z,41.23
2019-02-18T01:22:56.292Z,43.33
2019-02-18T01:25:24.780Z,44.17
2019-02-18T01:27:53.269Z,41.90
2019-02-18T01:30:21.746Z,40.37
2019-02-18T01:32:50.393Z,46.70
2019-02-18T01:35:18.883Z,43.90
2019-02-18T01:37:47.510Z,42.60
2019-02-18T01:40:16.015Z,51.77
2019-02-18T01:42:44.486Z,50.40
2019-02-18T01:45:15.676Z,50.27
2019-02-18T01:47:44.244Z,49.67
2019-02-18T01:50:14.381Z,45.77
2019-02-18T01:52:42.864Z,52.03
2019-02-18T01:55:12.728Z,53.93
2019-02-18T01:57:41.287Z,55.03
2019-02-18T02:00:14.874Z,60.63
2019-02-18T02:02:43.284Z,66.13
2019-02-18T02:05:13.581Z,66.20
2019-02-18T02:07:42.071Z,62.57
2019-02-18T02:10:12.617Z,61.43
2019-02-18T02:12:41.044Z,59.73
2019-02-18T02:15:12.733Z,60.57
2019-02-18T02:17:41.221Z,52.67
2019-02-18T02:20:09.862Z,57.90
2019-02-18T02:22:38.335Z,47.70
2019-02-18T02:25:06.835Z,50.77
2019-02-18T02:27:35.328Z,52.00
2019-02-18T02:30:04.958Z,54.17
2019-02-18T02:32:33.434Z,58.43
2019-02-18T02:35:01.923Z,48.87
2019-02-18T02:37:30.405Z,51.43
2019-02-18T02:39:58.825Z,52.67
2019-02-18T02:42:27.376Z,232.87
2019-02-18T02:44:55.943Z,52.00
2019-02-18T02:47:24.447Z,51.13
2019-02-18T02:49:52.941Z,44.87
2019-02-18T02:52:21.412Z,49.47
2019-02-18T02:54:49.967Z,45.30
2019-02-18T02:57:18.517Z,45.97
2019-02-18T02:59:46.994Z,50.57
2019-02-18T03:02:15.544Z,49.93
2019-02-18T03:04:43.984Z,48.20
2019-02-18T03:07:12.468Z,42.23
2019-02-18T03:09:41.008Z,42.60
2019-02-18T03:12:09.415Z,45.83
2019-02-18T03:14:37.837Z,45.73
2019-02-18T03:17:06.335Z,42.47
2019-02-18T03:19:34.809Z,77.63
2019-02-18T03:22:03.242Z,53.53
2019-02-18T03:24:31.743Z,53.13
2019-02-18T03:27:00.295Z,48.10
2019-02-18T03:29:52.943Z,47.83
2019-02-18T03:32:21.493Z,57.37
2019-02-18T03:34:49.903Z,50.67
2019-02-18T03:37:18.462Z,45.47
2019-02-18T03:39:46.929Z,46.07
2019-02-18T03:42:15.416Z,46.40
2019-02-18T03:44:43.886Z,43.80
2019-02-18T03:47:12.385Z,41.97
2019-02-18T03:49:40.873Z,44.90
2019-02-18T03:52:09.822Z,45.40
2019-02-18T03:54:38.232Z,47.87
2019-02-18T03:57:06.647Z,45.40
2019-02-18T03:59:35.073Z,46.50
2019-02-18T04:02:03.567Z,46.90
2019-02-18T04:04:32.135Z,44.67
2019-02-18T04:07:00.558Z,42.10
2019-02-18T04:09:28.989Z,49.13
2019-02-18T04:11:57.542Z,47.83
2019-02-18T04:14:25.953Z,52.40
2019-02-18T04:16:54.507Z,50.67
2019-02-18T04:19:23.070Z,53.10
2019-02-18T04:21:51.497Z,59.50
2019-02-18T04:24:19.968Z,82.90
2019-02-18T04:26:48.470Z,79.67
2019-02-18T04:29:16.864Z,74.77
2019-02-18T04:31:45.432Z,71.37
2019-02-18T04:34:13.909Z,54.67
2019-02-18T04:36:42.410Z,62.20
2019-02-18T04:39:10.890Z,63.93
2019-02-18T04:41:39.329Z,74.63
2019-02-18T04:44:07.747Z,76.63
2019-02-18T04:46:36.158Z,75.33
2019-02-18T04:49:04.646Z,73.80
2019-02-18T04:51:33.131Z,60.83
2019-02-18T04:54:01.560Z,56.90
2019-02-18T04:56:29.988Z,65.73
2019-02-18T04:58:58.622Z,69.83
2019-02-18T05:01:27.054Z,71.43
2019-02-18T05:03:55.546Z,70.07
2019-02-18T05:06:25.547Z,66.93
2019-02-18T05:09:04.859Z,80.50
2019-02-18T05:11:24.606Z,74.73
2019-02-18T05:13:53.125Z,86.77
2019-02-18T05:16:21.651Z,94.20
2019-02-18T05:18:50.095Z,82.47
2019-02-18T05:21:18.587Z,80.50
2019-02-18T05:23:47.244Z,80.20
2019-02-18T05:26:15.879Z,84.20
2019-02-18T05:28:44.447Z,105.87
2019-02-18T05:31:13.152Z,106.67
2019-02-18T05:33:41.784Z,106.10
2019-02-18T05:36:10.362Z,132.27
2019-02-18T05:38:38.997Z,123.37
2019-02-18T05:41:07.520Z,106.93
2019-02-18T05:43:36.194Z,109.10
2019-02-18T05:46:04.870Z,131.97
2019-02-18T05:48:34.147Z,128.97
2019-02-18T05:51:02.905Z,129.83
2019-02-18T05:53:31.545Z,131.80
2019-02-18T05:56:00.113Z,150.80
2019-02-18T05:58:28.695Z,153.67
2019-02-18T06:00:57.249Z,93.17
2019-02-18T06:03:25.820Z,100.57
2019-02-18T06:05:54.305Z,147.87
2019-02-18T06:08:22.931Z,170.57
2019-02-18T06:10:51.423Z,139.30
2019-02-18T06:13:20.044Z,143.23
2019-02-18T06:15:48.714Z,138.20
2019-02-18T06:18:17.207Z,93.93
2019-02-18T06:20:45.776Z,86.53
2019-02-18T06:23:14.383Z,70.77
2019-02-18T06:25:42.975Z,44.63
2019-02-18T06:28:11.452Z,38.90
2019-02-18T06:30:39.948Z,53.27
2019-02-18T06:33:08.499Z,53.50
2019-02-18T06:35:36.919Z,53.50
2019-02-18T06:38:05.484Z,64.97
2019-02-18T06:40:34.048Z,66.77
2019-02-18T06:43:02.665Z,59.13
2019-02-18T06:45:35.735Z,56.67
2019-02-18T06:48:08.617Z,51.90
2019-02-18T06:50:37.123Z,45.37
2019-02-18T06:53:05.612Z,51.07
2019-02-18T06:55:34.100Z,60.00
2019-02-18T06:58:20.319Z,70.47
2019-02-18T07:03:38.507Z,45.40
2019-02-18T07:08:56.179Z,41.17
2019-02-18T07:11:26.313Z,43.37
2019-02-18T07:13:54.794Z,34.60
2019-02-18T07:16:23.288Z,43.03
2019-02-18T07:18:51.775Z,45.00
2019-02-18T07:21:20.319Z,49.80
2019-02-18T07:23:49.053Z,36.23
2019-02-18T07:26:17.600Z,33.90
2019-02-18T07:28:46.014Z,27.67
2019-02-18T07:31:15.163Z,30.30
2019-02-18T07:33:44.265Z,57.73
2019-02-18T07:36:13.241Z,33.05
2019-02-18T07:38:42.317Z,28.70
2019-02-18T07:41:11.323Z,43.55
2019-02-18T07:43:40.460Z,41.20
2019-02-18T07:46:09.613Z,32.53
2019-02-18T07:48:38.619Z,31.80
2019-02-18T07:51:07.644Z,38.25
2019-02-18T07:53:36.780Z,30.30
2019-02-18T07:56:05.865Z,29.65
2019-02-18T07:58:34.888Z,29.57
2019-02-18T08:01:04.023Z,31.52
2019-02-18T08:03:33.115Z,28.32
2019-02-18T08:06:02.219Z,33.40
2019-02-18T08:08:31.236Z,29.07
2019-02-18T08:11:00.318Z,27.82
2019-02-18T08:13:29.354Z,26.62
2019-02-18T08:15:58.359Z,40.05
2019-02-18T08:18:27.528Z,37.67
2019-02-18T08:20:56.946Z,31.48
2019-02-18T08:23:26.086Z,29.37
2019-02-18T08:25:55.159Z,32.45
2019-02-18T08:28:24.242Z,33.30
2019-02-18T08:30:53.337Z,35.20
2019-02-18T08:33:22.474Z,37.93
2019-02-18T08:35:51.508Z,34.40
2019-02-18T08:38:20.738Z,33.42
2019-02-18T08:40:49.836Z,37.17
2019-02-18T08:43:18.994Z,32.80
2019-02-18T08:45:48.104Z,42.27
2019-02-18T08:48:17.117Z,37.45
2019-02-18T08:50:46.149Z,43.00
2019-02-18T08:53:15.250Z,37.15
2019-02-18T08:55:44.279Z,36.05
2019-02-18T08:58:13.369Z,42.13
2019-02-18T09:00:42.365Z,32.90
2019-02-18T09:03:11.467Z,33.25
2019-02-18T09:05:40.564Z,37.35
2019-02-18T09:08:09.589Z,36.98
2019-02-18T09:10:38.716Z,32.28
2019-02-18T09:13:07.734Z,36.03
2019-02-18T09:15:36.882Z,32.55
2019-02-18T09:18:06.049Z,33.30
2019-02-18T09:20:35.095Z,43.55
2019-02-18T09:23:08.224Z,34.13
2019-02-18T09:25:38.893Z,30.60
2019-02-18T09:28:08.048Z,34.33
2019-02-18T09:30:38.793Z,36.83
2019-02-18T09:33:07.872Z,33.25
2019-02-18T09:35:36.901Z,33.40
2019-02-18T09:38:06.146Z,34.98
2019-02-18T09:40:44.286Z,33.88
2019-02-18T09:43:06.149Z,37.08
2019-02-18T09:45:35.297Z,35.75
2019-02-18T09:48:04.398Z,32.40
2019-02-18T09:50:33.526Z,34.70
2019-02-18T09:53:02.695Z,31.23
2019-02-18T09:55:31.749Z,31.10
2019-02-18T09:58:00.935Z,34.95
2019-02-18T10:00:30.018Z,34.67
2019-02-18T10:02:59.192Z,34.78
2019-02-18T10:05:28.345Z,29.00
2019-02-18T10:07:57.483Z,31.68
2019-02-18T10:10:26.636Z,29.52
2019-02-18T10:12:55.736Z,29.85
2019-02-18T10:15:24.899Z,40.43
2019-02-18T10:17:54.050Z,29.42
2019-02-18T10:20:23.140Z,36.93
2019-02-18T10:22:52.178Z,40.38
2019-02-18T10:25:21.312Z,30.43
2019-02-18T10:27:50.505Z,32.58
2019-02-18T10:30:20.771Z,32.98
2019-02-18T10:32:49.983Z,49.10
2019-02-18T10:35:19.073Z,30.43
2019-02-18T10:37:54.885Z,28.67
2019-02-18T10:40:19.016Z,30.62
2019-02-18T10:42:48.174Z,29.63
2019-02-18T10:45:17.193Z,26.50
2019-02-18T10:47:46.251Z,33.28
2019-02-18T10:50:15.417Z,32.42
2019-02-18T10:52:44.576Z,38.45
2019-02-18T10:55:13.740Z,28.45
2019-02-18T10:57:42.823Z,32.35
2019-02-18T11:00:16.383Z,26.80
2019-02-18T11:02:45.471Z,25.72
2019-02-18T11:05:14.564Z,42.83
2019-02-18T11:07:43.722Z,24.05
2019-02-18T11:10:16.907Z,23.65
2019-02-18T11:12:47.669Z,26.52
2019-02-18T11:15:16.954Z,25.02
2019-02-18T11:17:46.447Z,27.65
2019-02-18T11:20:15.461Z,26.80
2019-02-18T11:22:44.621Z,25.12
2019-02-18T11:25:15.434Z,29.52
2019-02-18T11:27:44.433Z,30.97
2019-02-18T11:30:39.256Z,32.40
2019-02-18T11:33:08.377Z,29.72
2019-02-18T11:35:37.376Z,33.78
2019-02-18T11:38:06.451Z,31.93
2019-02-18T11:40:35.985Z,30.17
2019-02-18T11:43:05.053Z,30.77
2019-02-18T11:45:34.880Z,26.10
2019-02-18T11:48:04.118Z,27.35
2019-02-18T11:50:33.149Z,30.20
2019-02-18T11:53:02.153Z,27.58
2019-02-18T11:55:31.191Z,28.27
2019-02-18T11:58:00.272Z,33.60
2019-02-18T12:00:29.288Z,25.35
2019-02-18T12:03:03.110Z,25.55
2019-02-18T12:05:29.190Z,24.57
2019-02-18T12:07:58.288Z,21.77
2019-02-18T12:10:27.409Z,23.30
2019-02-18T12:12:56.400Z,26.17
2019-02-18T12:15:25.429Z,22.82
2019-02-18T12:17:54.527Z,21.87
2019-02-18T12:20:23.762Z,23.07
2019-02-18T12:22:52.862Z,27.22
2019-02-18T12:25:22.566Z,22.55
2019-02-18T12:27:51.736Z,19.50
2019-02-18T12:30:20.904Z,20.43
2019-02-18T12:32:49.995Z,29.35
2019-02-18T12:35:19.175Z,23.20
2019-02-18T12:37:55.235Z,32.55
2019-02-18T12:40:19.218Z,18.65
2019-02-18T12:42:48.309Z,21.33
2019-02-18T12:45:17.455Z,19.17
2019-02-18T12:47:46.739Z,23.83
2019-02-18T12:50:15.899Z,16.75
2019-02-18T12:52:45.008Z,19.23
2019-02-18T12:55:14.849Z,18.77
2019-02-18T12:57:44.223Z,26.60
2019-02-18T13:00:14.458Z,23.12
2019-02-18T13:02:45.052Z,20.60
2019-02-18T13:05:14.641Z,20.80
2019-02-18T13:07:43.799Z,22.02
2019-02-18T13:10:13.041Z,18.48
2019-02-18T13:12:42.580Z,19.90
2019-02-18T13:15:19.036Z,24.23
2019-02-18T13:17:49.878Z,50.58
2019-02-18T13:20:19.051Z,18.00
2019-02-18T13:22:48.068Z,22.45
2019-02-18T13:25:17.242Z,24.00
2019-02-18T13:27:46.631Z,22.77
2019-02-18T13:30:18.565Z,20.90
2019-02-18T13:32:47.668Z,21.60
2019-02-18T13:35:16.842Z,26.90
2019-02-18T13:37:45.929Z,20.45
2019-02-18T13:40:16.575Z,24.85
2019-02-18T13:42:45.977Z,17.62
2019-02-18T13:45:15.190Z,23.07
2019-02-18T13:47:44.258Z,18.42
2019-02-18T13:50:14.002Z,17.82
2019-02-18T13:52:43.087Z,28.47
2019-02-18T13:55:12.927Z,14.73
2019-02-18T13:57:42.367Z,15.13
2019-02-18T14:00:20.274Z,17.62
2019-02-18T14:02:50.317Z,13.35
2019-02-18T14:05:21.049Z,11.00
2019-02-18T14:07:50.118Z,23.73
2019-02-18T14:10:20.321Z,18.52
2019-02-18T14:12:49.380Z,10.13
2019-02-18T14:15:18.956Z,15.18
2019-02-18T14:17:48.053Z,12.50
2019-02-18T14:20:18.262Z,27.75
2019-02-18T14:22:47.344Z,11.25
2019-02-18T14:25:16.761Z,21.05
2019-02-18T14:27:45.815Z,21.97
2019-02-18T14:30:16.512Z,40.73
2019-02-18T14:32:45.613Z,17.60
2019-02-18T14:35:16.592Z,12.30
2019-02-18T14:37:45.735Z,21.00
2019-02-18T14:40:17.282Z,28.02
2019-02-18T14:42:46.455Z,27.93
2019-02-18T14:45:15.804Z,17.52
2019-02-18T14:47:44.822Z,23.50
2019-02-18T14:50:16.582Z,78.05
2019-02-18T14:52:45.946Z,23.00
2019-02-18T14:55:15.141Z,41.48
2019-02-18T14:57:44.237Z,42.90
2019-02-18T15:00:23.192Z,94.20
2019-02-18T15:02:54.144Z,44.67
2019-02-18T15:05:23.657Z,54.75
2019-02-18T15:07:52.665Z,52.35
2019-02-18T15:10:21.693Z,64.55
2019-02-18T15:12:50.727Z,46.88
2019-02-18T15:15:19.909Z,39.88
2019-02-18T15:17:49.070Z,42.75
2019-02-18T15:20:18.537Z,79.12
2019-02-18T15:22:47.629Z,60.30
2019-02-18T15:25:16.761Z,72.40
2019-02-18T15:27:45.780Z,89.87
2019-02-18T15:30:15.905Z,85.35
2019-02-18T15:32:45.068Z,161.57
2019-02-18T15:35:15.314Z,153.35
2019-02-18T15:37:44.540Z,131.90
2019-02-18T15:40:15.285Z,118.85
2019-02-18T15:42:44.441Z,107.12
2019-02-18T15:45:13.681Z,107.03
2019-02-18T15:47:42.776Z,144.60
2019-02-18T15:50:13.018Z,139.47
2019-02-18T15:52:42.197Z,175.62
2019-02-18T15:55:11.740Z,155.95
2019-02-18T15:57:40.927Z,144.20
2019-02-18T16:00:13.350Z,209.87
2019-02-18T16:02:42.549Z,269.43
2019-02-18T16:05:11.581Z,316.77
2019-02-18T16:07:40.706Z,355.73
2019-02-18T16:10:09.982Z,348.55
2019-02-18T16:12:39.079Z,298.13
2019-02-18T16:15:09.816Z,180.00
2019-02-18T16:17:38.896Z,172.30
2019-02-18T16:20:11.531Z,190.05
2019-02-18T16:22:40.714Z,138.15
2019-02-18T16:25:15.768Z,108.05
2019-02-18T16:27:44.859Z,105.10
2019-02-18T16:30:15.244Z,115.88
2019-02-18T16:32:44.753Z,145.28
2019-02-18T16:35:13.933Z,139.03
2019-02-18T16:37:43.473Z,167.20
2019-02-18T16:40:17.606Z,184.40
2019-02-18T16:42:46.694Z,172.85
2019-02-18T16:45:16.010Z,148.40
2019-02-18T16:47:45.235Z,146.20
2019-02-18T16:50:14.324Z,146.32
2019-02-18T16:52:43.482Z,118.97
2019-02-18T16:55:14.079Z,119.95
2019-02-18T16:57:43.098Z,116.75
2019-02-18T17:00:21.302Z,159.35
2019-02-18T17:02:51.079Z,216.20
2019-02-18T17:05:20.448Z,222.65
2019-02-18T17:07:49.625Z,217.40
2019-02-18T17:10:18.843Z,211.25
2019-02-18T17:12:48.023Z,135.15
2019-02-18T17:15:17.097Z,136.77
2019-02-18T17:17:46.375Z,148.72
2019-02-18T17:20:15.602Z,159.18
2019-02-18T17:22:44.805Z,198.38
2019-02-18T17:25:14.462Z,179.85
2019-02-18T17:27:44.006Z,200.72
2019-02-18T17:30:17.173Z,124.62
2019-02-18T17:32:46.424Z,152.32
2019-02-18T17:35:15.761Z,160.18
2019-02-18T17:37:45.004Z,139.55
2019-02-18T17:40:14.809Z,136.65
2019-02-18T17:42:45.899Z,129.80
2019-02-18T17:45:17.577Z,145.40
2019-02-18T17:47:46.813Z,144.90
2019-02-18T17:50:16.695Z,147.68
2019-02-18T17:52:46.551Z,115.77
2019-02-18T17:55:19.555Z,99.80
2019-02-18T17:57:48.718Z,94.30
2019-02-18T18:00:24.874Z,95.03
2019-02-18T18:02:53.978Z,112.50
2019-02-18T18:05:23.209Z,151.10
2019-02-18T18:07:52.450Z,168.95
2019-02-18T18:10:21.884Z,196.65
2019-02-18T18:12:51.685Z,200.03
2019-02-18T18:15:20.844Z,157.75
2019-02-18T18:17:50.012Z,173.62
2019-02-18T18:20:19.271Z,139.88
2019-02-18T18:22:48.449Z,157.72
2019-02-18T18:25:17.848Z,183.10
2019-02-18T18:27:47.112Z,164.10
2019-02-18T18:30:19.774Z,172.30
2019-02-18T18:32:48.885Z,198.47
2019-02-18T18:35:18.057Z,198.93
2019-02-18T18:37:48.589Z,217.05
2019-02-18T18:40:19.315Z,227.07
2019-02-18T18:42:48.494Z,199.82
2019-02-18T18:45:18.284Z,169.10
2019-02-18T18:47:47.523Z,178.32
2019-02-18T18:50:18.662Z,179.68
2019-02-18T18:52:48.162Z,198.97
2019-02-18T18:55:17.328Z,207.32
2019-02-18T19:00:19.757Z,158.07
2019-02-18T19:02:48.396Z,160.07
2019-02-18T19:05:17.664Z,171.00
2019-02-18T19:07:46.917Z,165.80
2019-02-18T19:10:16.073Z,175.25
2019-02-18T19:12:45.268Z,154.05
2019-02-18T19:15:15.717Z,169.05
2019-02-18T19:17:44.958Z,176.82
2019-02-18T19:20:14.508Z,171.28
2019-02-18T19:22:43.616Z,171.62
2019-02-18T19:25:12.960Z,185.10
2019-02-18T19:27:42.291Z,187.45
2019-02-18T19:30:17.485Z,204.80
2019-02-18T19:32:47.126Z,214.48
2019-02-18T19:35:16.361Z,206.00
2019-02-18T19:37:45.006Z,213.27
2019-02-18T19:40:14.873Z,178.60
2019-02-18T19:42:44.069Z,170.77
2019-02-18T19:45:15.851Z,265.73
2019-02-18T19:47:45.228Z,274.67
2019-02-18T19:50:14.451Z,359.70
2019-02-18T19:52:43.936Z,391.47
2019-02-18T19:55:12.810Z,360.57
2019-02-18T19:57:41.968Z,316.65
2019-02-18T20:00:19.251Z,259.43
2019-02-18T20:02:48.010Z,238.80
2019-02-18T20:05:16.595Z,189.90
2019-02-18T20:07:45.259Z,160.77
2019-02-18T20:10:14.436Z,164.52
2019-02-18T20:12:43.604Z,181.57
2019-02-18T20:15:16.630Z,216.40
2019-02-18T20:17:45.286Z,259.70
2019-02-18T20:20:17.439Z,174.60
2019-02-18T20:22:47.678Z,193.23
2019-02-18T20:25:16.265Z,177.77
2019-02-18T20:27:45.287Z,129.43
2019-02-18T20:30:17.664Z,101.17
2019-02-18T20:32:46.291Z,122.00
2019-02-18T20:35:14.923Z,137.07
2019-02-18T20:37:43.565Z,149.77
2019-02-18T20:40:12.293Z,148.43
2019-02-18T20:42:41.321Z,147.07
2019-02-18T20:45:12.661Z,183.47
2019-02-18T20:47:41.325Z,152.00
2019-02-18T20:50:12.027Z,108.40
2019-02-18T20:52:40.656Z,81.93
2019-02-18T20:55:11.887Z,90.97
2019-02-18T20:57:40.657Z,73.77
2019-02-18T21:00:15.758Z,69.63
2019-02-18T21:02:44.403Z,95.43
2019-02-18T21:05:13.039Z,85.87
2019-02-18T21:07:41.707Z,145.73
2019-02-18T21:10:13.424Z,172.47
2019-02-18T21:12:42.075Z,119.97
2019-02-18T21:15:10.720Z,77.40
2019-02-18T21:17:39.288Z,64.57
2019-02-18T21:20:09.999Z,50.10
2019-02-18T21:22:38.431Z,91.63
2019-02-18T21:25:08.644Z,60.83
2019-02-18T21:27:37.293Z,52.20
2019-02-18T21:30:09.037Z,46.33
2019-02-18T21:32:37.604Z,44.97
2019-02-18T21:35:06.631Z,50.53
2019-02-18T21:37:35.274Z,46.93
2019-02-18T21:40:05.267Z,45.80
2019-02-18T21:42:33.903Z,38.97
2019-02-18T21:45:02.541Z,34.47
2019-02-18T21:47:31.190Z,36.53
2019-02-18T21:49:59.852Z,36.77
2019-02-18T21:52:28.494Z,39.10
2019-02-18T21:54:57.445Z,52.17
2019-02-18T21:57:25.995Z,91.70
2019-02-18T21:59:54.558Z,96.70
2019-02-18T22:02:23.461Z,64.77
2019-02-18T22:04:52.046Z,49.47
2019-02-18T22:07:20.695Z,101.93
2019-02-18T22:09:49.649Z,37.20
2019-02-18T22:12:18.214Z,36.57
2019-02-18T22:14:46.856Z,28.57
2019-02-18T22:17:15.408Z,38.33
2019-02-18T22:19:44.039Z,38.30
2019-02-18T22:22:12.588Z,42.60
2019-02-18T22:24:41.076Z,39.83
2019-02-18T22:27:09.991Z,43.87
2019-02-18T22:29:38.466Z,42.67
2019-02-18T22:32:06.975Z,108.60
2019-02-18T22:34:35.464Z,192.47
2019-02-18T22:37:04.117Z,152.87
2019-02-18T22:39:32.683Z,44.00
2019-02-18T22:42:01.246Z,37.83
2019-02-18T22:44:30.159Z,34.27
2019-02-18T22:46:58.815Z,35.37
2019-02-18T22:49:27.407Z,49.43
2019-02-18T22:51:55.968Z,53.40
2019-02-18T22:54:24.517Z,43.13
2019-02-18T22:56:53.079Z,40.97
2019-02-18T22:59:21.543Z,38.43
2019-02-18T23:01:50.596Z,37.77
2019-02-18T23:04:19.228Z,37.23
2019-02-18T23:06:47.856Z,35.83
2019-02-18T23:09:16.485Z,37.70
2019-02-18T23:11:45.031Z,41.23
2019-02-18T23:14:13.589Z,47.70
2019-02-18T23:16:42.103Z,41.00
2019-02-18T23:19:10.573Z,44.73
2019-02-18T23:21:40.528Z,44.03
2019-02-18T23:24:09.180Z,43.73
2019-02-18T23:26:37.810Z,42.47
2019-02-18T23:29:06.444Z,44.17
2019-02-18T23:31:34.867Z,39.10
2019-02-18T23:34:03.739Z,40.87
2019-02-18T23:36:32.313Z,40.57
2019-02-18T23:39:00.881Z,35.83
2019-02-18T23:41:29.440Z,33.73
2019-02-18T23:43:58.014Z,39.93
2019-02-18T23:46:26.583Z,46.90
2019-02-18T23:48:55.147Z,57.57
2019-02-18T23:51:23.905Z,66.70
2019-02-18T23:53:52.561Z,78.80
2019-02-18T23:56:21.123Z,50.60
2019-02-18T23:58:49.752Z,61.40
